Terminal Aerodrome Forecast
Issued by NWS Mt. Holly, NJ

Home | Current Version | Previous Version | Text Only | Print | Product List | Glossary On
Versions: 1 2 3 4 5 6 7 8 9 10 11 12 13 14 15 16
000
FTUS41 KPHI 270534
TAFABE
TAF
KABE 270534Z 2706/2806 36003KT P6SM BKN040
      TEMPO 2708/2711 5SM -SHSN BKN025 OVC040
     FM271400 32007KT P6SM SCT040=

USA.gov is the U.S. government's official web portal to all federal, state and local government web resources and services.